• Join FlightAware (Why Join?)
  • Login
  • US Flag 
10:40PM EDT


 

Airport Tracker/Info


-or-


 

Live Flight TrackerFlight Track Log ✈ UPS35 ✈ 22-Dec-2013 ✈ YSSY / SYD - RKSI / ICN

Flight Track Log - Related Links

Times and Time Zones

All times are in EST time to prevent confusion due to time zone crossing. See the UPS35 flight status page for this flight to view local times or setup timezone preferences in your user account.

Time Position Orientation Groundspeed Altitude Reporting Facility
EST Latitude Longitude Course Direction KTS MPH feet Rate Location/Type
06:18AM -33.9545 151.1781 347° North 136 157  Level FlightAware ADS-B (YRPA)
06:19AM -33.9398 151.1743 348° North 167 192 600 2,700 Climbing FlightAware ADS-B (YRPA)
06:19AM -33.9255 151.1716 351° North 145 167 1,800 4,200 Climbing FlightAware ADS-B
06:19AM -33.9221 151.1710 352° North 147 169 2,300 2,520 Climbing FlightAware ADS-B
06:19AM -33.9129 151.1674 342° North 151 174 2,600 1,560 Climbing FlightAware ADS-B (YRAY)
06:19AM -33.9069 151.1613 320° Northwest 155 178 3,000 2,640 Climbing FlightAware ADS-B (YSSY / SYD)
06:20AM -33.9012 151.1546 315° West 154 177 3,400 1,440 Climbing FlightAware ADS-B (YPLB)
06:20AM -33.8910 151.1412 313° West 184 212 3,700 840 Climbing FlightAware ADS-B (YRAY)
06:20AM -33.8789 151.1242 311° West 229 264 4,000 1,020 Climbing FlightAware ADS-B (YRAY)
06:21AM -33.8646 151.1030 309° West 261 300 4,400 1,380 Climbing FlightAware ADS-B (YRAY)
06:21AM -33.8554 151.0903 311° West 290 334 4,700 1,320 Climbing FlightAware ADS-B
06:21AM -33.8454 151.0769 312° West 300 345 4,800 780 Climbing FlightAware ADS-B (YPLB)
06:21AM -33.8346 151.0631 313° West 323 372 5,000 1,260 Climbing FlightAware ADS-B
06:21AM -33.8079 151.0319 316° Northwest 330 380 5,600 2,160 Climbing FlightAware ADS-B
06:22AM -33.7863 151.0082 318° Northwest 330 380 6,500 3,180 Climbing FlightAware ADS-B
06:22AM -33.7594 150.9805 319° Northwest 366 421 7,700 2,820 Climbing FlightAware ADS-B
06:22AM -33.7406 150.9602 318° Northwest 376 433 8,200 2,640 Climbing FlightAware ADS-B (YSSY / SYD)
06:23AM -33.7236 150.9413 317° Northwest 380 437 9,000 3,000 Climbing FlightAware ADS-B
06:23AM -33.7000 150.9097 312° West 381 438 9,900 2,760 Climbing FlightAware ADS-B (YRPA)
06:24AM -33.6563 150.8461 310° West 399 459 11,700 3,000 Climbing FlightAware ADS-B
06:24AM -33.6328 150.8142 311° West 405 466 12,600 2,580 Climbing FlightAware ADS-B (YPLB)
06:24AM -33.6045 150.7838 318° Northwest 418 481 13,400 2,220 Climbing FlightAware ADS-B
06:25AM -33.5652 150.7630 336° Northwest 431 496 14,300 2,880 Climbing FlightAware ADS-B (YRPA)
06:25AM -33.5034 150.7476 348° North 434 499 15,900 2,880 Climbing FlightAware ADS-B
06:26AM -33.4081 150.7154 344° North 437 503 18,200 2,400 Climbing FlightAware ADS-B (YRPA)
06:26AM -33.3319 150.6951 347° North 454 522 19,300 2,220 Climbing FlightAware ADS-B (YPLB)
06:27AM -33.2559 150.6744 347° North 455 524 21,000 2,280 Climbing FlightAware ADS-B
06:28AM -33.1831 150.6529 346° North 469 540 22,200 1,860 Climbing FlightAware ADS-B
06:28AM -33.1611 150.6466 346° North 471 542 22,300 1,380 Climbing FlightAware ADS-B (YPLB)
06:28AM -33.1464 150.6422 346° North 477 549 23,100 1,500 Climbing FlightAware ADS-B
06:29AM -33.0300 150.6076 346° North 483 556 23,900 1,500 Climbing FlightAware ADS-B (YRPA)
06:29AM -32.9921 150.5964 346° North 497 572 24,300 1,740 Climbing FlightAware ADS-B (YPLB)
06:30AM -32.9520 150.5844 346° North 497 572 25,300 2,040 Climbing FlightAware ADS-B (YPLB)
06:30AM -32.8570 150.5566 346° North 498 573 26,500 1,920 Climbing FlightAware ADS-B
06:31AM -32.7903 150.5369 346° North 496 571 27,500 1,800 Climbing FlightAware ADS-B (YPLB)
06:31AM -32.7023 150.5107 346° North 496 571 28,600 2,280 Climbing Aus ATC (RADAR)
06:32AM -32.6693 150.5014 346° North 494 568 29,300 2,340 Climbing FlightAware ADS-B (YRPA)
06:32AM -32.5942 150.4793 346° North 491 565 30,400 1,740 Climbing FlightAware ADS-B (YPLB)
06:33AM -32.5031 150.4526 346° North 491 565 31,500 1,680 Climbing Aus ATC (RADAR)
06:33AM -32.4923 150.4497 346° North 482 555 31,800 1,560 Climbing FlightAware ADS-B (YRPA)
06:34AM -32.4026 150.4234 346° North 493 567 32,700 1,320 Climbing FlightAware ADS-B (YRPA)
06:34AM -32.3158 150.3982 346° North 495 570 33,600 1,380 Climbing FlightAware ADS-B (YRPA)
06:35AM -32.2327 150.3741 346° North 494 568 34,400 1,500 Climbing FlightAware ADS-B (YPLB)
06:36AM -32.1385 150.3468 346° North 478 550 35,600 1,080 Climbing FlightAware ADS-B (YRPA)
06:36AM -32.0527 150.3220 346° North 482 555 36,000 240 Climbing FlightAware ADS-B (YRPA)
06:37AM -31.9626 150.2959 346° North 484 557 36,000  Level FlightAware ADS-B (YRPA)
06:38AM -31.8767 150.2714 346° North 495 570 36,000  Level FlightAware ADS-B (YRPA)
06:38AM -31.7928 150.2472 346° North 494 568 36,000  Level FlightAware ADS-B (YPLB)
06:39AM -31.6953 150.2190 346° North 494 568 36,000  Level FlightAware ADS-B (YRPA)
06:40AM -31.5952 150.1900 346° North 496 571 36,000  Level Aus ATC (RADAR)
06:40AM -31.5699 150.1834 346° North 495 570 36,000  Level FlightAware ADS-B (YRPA)
06:41AM -31.4156 150.1393 346° North 500 575 36,000  Level Aus ATC (RADAR)
06:41AM -31.3601 150.1232 346° North 497 572 36,000  Level Aus ATC (RADAR)
06:42AM -31.2745 150.0990 346° North 492 566 36,000  Level Aus ATC (RADAR)
06:43AM -31.1400 150.0610 346° North 493 567 36,000  Level Aus ATC (RADAR)
06:43AM -31.0838 150.0449 346° North 493 567 36,000  Level Aus ATC (RADAR)
06:44AM -31.0051 150.0227 346° North 495 570 36,000  Level Aus ATC (RADAR)
06:45AM -30.8987 149.9925 346° North 505 581 36,000  Level Aus ATC (RADAR)
06:45AM -30.8187 149.9700 346° North 507 583 36,000  Level Aus ATC (RADAR)
06:46AM -30.7046 149.9380 346° North 509 586 36,000  Level Aus ATC (RADAR)
06:47AM -30.6471 149.9220 346° North 510 587 36,000  Level Aus ATC (RADAR)
06:47AM -30.5672 149.8997 346° North 508 585 36,000  Level Aus ATC (RADAR)
06:48AM -30.4639 149.8706 346° North 510 587 36,000  Level Aus ATC (RADAR)
06:48AM -30.4064 149.8546 347° North 512 589 36,000  Level Aus ATC (RADAR)
06:49AM -30.3259 149.8321 346° North 512 589 36,000  Level Aus ATC (RADAR)
06:50AM -30.2089 149.8076 350° North 514 592 36,000  Level Aus ATC (RADAR)
06:50AM -30.1276 149.7894 349° North 512 589 36,000  Level Aus ATC (RADAR)
06:51AM -30.0230 149.7668 349° North 511 588 36,000  Level Aus ATC (RADAR)
06:52AM -29.9578 149.7530 350° North 505 581 36,000  Level Aus ATC (RADAR)
06:52AM -29.8762 149.7355 349° North 507 583 36,000  Level Aus ATC (RADAR)
06:53AM -29.7369 149.7057 349° North 507 583 36,000  Level Aus ATC (RADAR)
06:54AM -29.6788 149.6933 349° North 506 582 36,000  Level Aus ATC (RADAR)
06:54AM -29.5967 149.6762 350° North 506 582 36,000  Level Aus ATC (RADAR)
06:55AM -29.4920 149.6539 349° North 507 583 36,000 -180 Level Aus ATC (RADAR)
06:56AM -29.4066 149.6358 350° North 513 590 35,800 -120 Descending Aus ATC (RADAR)
06:56AM -29.3018 149.6138 350° North 512 589 35,900  Climbing Aus ATC (RADAR)
06:57AM -29.2431 149.6017 350° North 514 592 35,800 -120 Descending Aus ATC (RADAR)
06:57AM -29.1612 149.5845 350° North 514 592 35,800 120 Level Aus ATC (RADAR)
06:58AM -29.0141 149.5522 349° North 510 587 36,000 120 Climbing Aus ATC (RADAR)
06:59AM -28.9552 149.5399 350° North 512 589 36,000  Level Aus ATC (RADAR)
06:59AM -28.8729 149.5227 350° North 514 592 36,000  Level Aus ATC (RADAR)
07:00AM -28.7197 149.4904 350° North 515 593 36,000 60 Level Aus ATC (RADAR)
07:02AM -28.5661 149.4585 350° North 517 595 36,200 60 Climbing Aus ATC (RADAR)
07:03AM -28.4123 149.4267 350° North 517 595 36,200 -60 Level Aus ATC (RADAR)
07:04AM -28.2584 149.3944 350° North 518 596 36,100 -60 Descending Aus ATC (RADAR)
07:05AM -28.1090 149.3454 344° North 512 589 36,100  Level Aus ATC (RADAR)
07:06AM -27.9612 149.2921 342° North 512 589 36,200  Climbing Aus ATC (RADAR)
07:07AM -27.8140 149.2382 342° North 512 589 36,100 -60 Descending Aus ATC (RADAR)
07:08AM -27.6664 149.1847 342° North 511 588 36,100  Level Aus ATC (RADAR)
07:09AM -27.5190 149.1310 342° North 511 588 36,100  Level Aus ATC (RADAR)
07:10AM -27.3716 149.0778 342° North 512 589 36,100  Level Aus ATC (RADAR)
07:11AM -27.2188 149.0261 343° North 513 590 36,100  Level Aus ATC (RADAR)
07:12AM -27.0768 148.9718 341° North 513 590 36,100  Level Aus ATC (RADAR)
07:14AM -26.8956 148.9070 342° North 511 588 36,100  Level Aus ATC (RADAR)
07:15AM -26.7709 148.8631 343° North 508 585 36,100  Level Aus ATC (RADAR)
07:16AM -26.6232 148.8098 342° North 512 589 36,100  Level Aus ATC (RADAR)
07:17AM -26.4495 148.7516 343° North 527 606 36,100  Level Aus ATC (RADAR)
07:18AM -26.2987 148.7096 346° North 517 595 36,100  Level Aus ATC (RADAR)
07:19AM -26.1465 148.6654 345° North 519 597 36,100  Level Aus ATC (RADAR)
07:20AM -25.9951 148.6214 345° North 518 596 36,100  Level Aus ATC (RADAR)
07:21AM -25.8425 148.5769 345° North 522 601 36,100  Level Aus ATC (RADAR)
07:22AM -25.6905 148.5327 345° North 522 601 36,100  Level Aus ATC (RADAR)
07:23AM -25.5492 148.4920 345° North 524 603 36,100  Level Aus ATC (RADAR)
07:24AM -25.3964 148.4479 345° North 524 603 36,100  Level Aus ATC (RADAR)
07:26AM -25.2436 148.4041 345° North 524 603 36,100  Level Aus ATC (RADAR)
07:27AM -25.0900 148.3601 345° North 525 604 36,100  Level Aus ATC (RADAR)
07:28AM -24.9358 148.3155 345° North 529 609 36,100  Level Aus ATC (RADAR)
07:29AM -24.7463 148.2616 346° North 525 604 36,100  Level Aus ATC (RADAR)
07:30AM -24.6150 148.2243 346° North 532 612 36,100  Level Aus ATC (RADAR)
07:31AM -24.4599 148.1801 345° North 532 612 36,100  Level Aus ATC (RADAR)
07:32AM -24.2805 148.1295 346° North 534 615 36,100  Level Aus ATC (RADAR)
07:33AM -24.1254 148.0854 345° North 533 613 36,100  Level Aus ATC (RADAR)
07:34AM -23.9696 148.0420 346° North 534 615 36,100  Level Aus ATC (RADAR)
07:36AM -23.8138 147.9982 346° North 533 613 36,100  Level Aus ATC (RADAR)
07:37AM -23.6704 147.9578 346° North 532 612 36,100  Level Aus ATC (RADAR)
07:38AM -23.5034 147.9111 346° North 531 611 36,100 -60 Level Aus ATC (RADAR)
07:39AM -23.3605 147.8711 346° North 532 612 36,000 -60 Descending Aus ATC (RADAR)
07:40AM -23.2055 147.8286 346° North 531 611 36,000  Level Aus ATC (RADAR)
07:41AM -23.0511 147.7854 346° North 529 609 36,000  Level Aus ATC (RADAR)
07:42AM -22.8956 147.7419 346° North 533 613 36,000  Level Aus ATC (RADAR)
07:43AM -22.6681 147.6795 346° North 532 612 36,000  Level Aus ATC (RADAR)
07:44AM -22.5847 147.6562 346° North 532 612 36,000  Level Aus ATC (RADAR)
07:45AM -22.4417 147.6134 345° North 533 613 36,000  Level Aus ATC (RADAR)
07:46AM -22.2867 147.5672 345° North 536 617 36,000  Level Aus ATC (RADAR)
07:47AM -22.1314 147.5211 345° North 535 616 36,000  Level Aus ATC (RADAR)
07:48AM -21.9763 147.4754 345° North 534 615 36,000  Level Aus ATC (RADAR)
07:49AM -21.8205 147.4295 345° North 536 617 36,000  Level Aus ATC (RADAR)
07:50AM -21.6770 147.3871 345° North 536 617 36,000  Level Aus ATC (RADAR)
07:51AM -21.5211 147.3415 345° North 538 619 36,000  Level Aus ATC (RADAR)
07:53AM -21.3654 147.2959 345° North 535 616 36,000  Level Aus ATC (RADAR)
07:54AM -21.2099 147.2505 345° North 537 618 36,000  Level Aus ATC (RADAR)
07:55AM -21.0665 147.2088 345° North 535 616 36,000  Level Aus ATC (RADAR)
07:56AM -20.9112 147.1637 345° North 534 615 36,000  Level Aus ATC (RADAR)
07:57AM -20.7560 147.1188 345° North 535 616 36,000  Level Aus ATC (RADAR)
07:58AM -20.6016 147.0737 345° North 531 611 36,000  Level Aus ATC (RADAR)
07:59AM -20.4468 147.0297 345° North 531 611 36,000  Level Aus ATC (RADAR)
08:00AM -20.2688 146.9784 345° North 531 611 36,000  Level Aus ATC (RADAR)
08:01AM -20.1501 146.9443 345° North 530 610 36,000  Level Aus ATC (RADAR)
08:02AM -19.9965 146.8997 345° North 529 609 36,000  Level Aus ATC (RADAR)
08:03AM -19.8189 146.8493 345° North 530 610 36,000  Level Aus ATC (RADAR)
08:04AM -19.6768 146.8091 345° North 529 609 36,000  Level Aus ATC (RADAR)
08:05AM -19.5229 146.7654 345° North 530 610 36,000  Level Aus ATC (RADAR)
08:07AM -19.3686 146.7219 345° North 531 611 36,000  Level Aus ATC (RADAR)
08:08AM -19.2134 146.6778 345° North 532 612 36,000  Level Aus ATC (RADAR)
08:09AM -19.0714 146.6365 345° North 530 610 36,000  Level Aus ATC (RADAR)
08:10AM -18.9172 146.5933 345° North 528 608 36,000  Level Aus ATC (RADAR)
08:11AM -18.7630 146.5491 345° North 530 610 36,100  Climbing Aus ATC (RADAR)
08:12AM -18.6086 146.5057 345° North 530 610 36,000  Descending Aus ATC (RADAR)
08:13AM -18.4663 146.4654 345° North 528 608 36,100  Climbing Aus ATC (RADAR)
08:14AM -18.3127 146.4214 345° North 526 605 36,000 -60 Descending Aus ATC (RADAR)
08:15AM -18.1589 146.3782 345° North 529 609 36,000  Level Aus ATC (RADAR)
08:16AM -18.0173 146.3380 345° North 526 605 36,000  Level Aus ATC (RADAR)
08:17AM -17.8640 146.2956 345° North 524 603 36,000  Level Aus ATC (RADAR)
08:18AM -17.7349 146.2600 345° North 516 594 36,000  Level FlightAware ADS-B
08:19AM -17.6412 146.2337 345° North 515 593 36,000  Level FlightAware ADS-B
08:19AM -17.5592 146.2107 345° North 521 600 36,000  Level Aus ATC (RADAR)
08:19AM -17.5463 146.2076 345° North 514 592 36,000  Level FlightAware ADS-B
08:20AM -17.4508 146.1809 345° North 514 592 36,000  Level FlightAware ADS-B
08:21AM -17.3573 146.1550 345° North 515 593 36,000  Level FlightAware ADS-B
08:21AM -17.2645 146.1288 345° North 515 593 36,000  Level FlightAware ADS-B
08:22AM -17.1722 146.1035 345° North 516 594 36,000  Level FlightAware ADS-B
08:23AM -17.0777 146.0776 345° North 517 595 36,000  Level FlightAware ADS-B
08:23AM -16.9820 146.0509 345° North 517 595 36,000 60 Level FlightAware ADS-B
08:24AM -16.8873 146.0247 345° North 517 595 36,100 60 Climbing FlightAware ADS-B
08:25AM -16.7913 145.9978 345° North 518 596 36,100  Level FlightAware ADS-B
08:25AM -16.6963 145.9719 345° North 518 596 36,100  Level FlightAware ADS-B
08:26AM -16.6019 145.9460 345° North 519 597 36,100 -120 Level FlightAware ADS-B
08:27AM -16.5253 145.9248 345° North 525 604 36,000  Descending Aus ATC (RADAR)
08:27AM -16.5070 145.9200 345° North 519 597 36,100 120 Climbing FlightAware ADS-B
08:27AM -16.4105 145.8933 345° North 519 597 36,100 -120 Level FlightAware ADS-B
08:28AM -16.3172 145.8681 345° North 519 597 36,000  Descending FlightAware ADS-B
08:29AM -16.2235 145.8420 345° North 517 595 36,100  Climbing FlightAware ADS-B
08:29AM -16.1300 145.8162 345° North 517 595 36,000 -120 Descending FlightAware ADS-B
08:30AM -16.0380 145.7910 345° North 517 595 36,000  Level FlightAware ADS-B
08:31AM -15.9403 145.7646 345° North 517 595 36,000  Level FlightAware ADS-B
08:31AM -15.8660 145.7432 345° North 521 600 36,000  Level Aus ATC (RADAR)
08:31AM -15.8464 145.7389 345° North 516 594 36,000  Level FlightAware ADS-B
08:32AM -15.7582 145.7147 345° North 516 594 36,000  Level FlightAware ADS-B
08:33AM -15.6095 145.6743 345° North 516 594 36,000  Level FlightAware ADS-B
08:34AM -15.5178 145.6493 345° North 517 595 36,000  Level FlightAware ADS-B
08:34AM -15.4216 145.6230 345° North 516 594 36,000  Level FlightAware ADS-B
08:35AM -15.3264 145.5973 345° North 517 595 36,000  Level FlightAware ADS-B
08:36AM -15.2207 145.5686 345° North 517 595 36,000  Level FlightAware ADS-B
08:37AM -15.1258 145.5417 345° North 521 600 36,000  Level Aus ATC (RADAR)
08:38AM -14.9732 145.5013 346° North 520 598 36,000  Level Aus ATC (RADAR)
08:39AM -14.8209 145.4597 345° North 519 597 36,100  Climbing Aus ATC (RADAR)
08:40AM -14.6808 145.4209 345° North 518 596 36,000 -60 Descending Aus ATC (RADAR)
08:41AM -14.5181 145.3767 345° North 516 594 36,000  Level Aus ATC (RADAR)
08:42AM -14.3673 145.3374 346° North 512 589 36,000  Level Aus ATC (RADAR)
08:43AM -14.2253 145.3153 351° North 510 587 36,000  Level Aus ATC (RADAR)
08:44AM -14.0485 145.2850 351° North 509 586 36,000  Level Aus ATC (RADAR)
08:45AM -13.8944 145.2624 352° North 511 588 36,000  Level Aus ATC (RADAR)
08:46AM -13.7526 145.2399 351° North 507 583 36,000  Level Aus ATC (RADAR)
08:47AM -13.5869 145.2115 351° North 510 587 36,100  Climbing Aus ATC (RADAR)
08:48AM -13.4329 145.1879 352° North 511 588 36,000 -60 Descending Aus ATC (RADAR)
08:49AM -13.2910 145.1673 352° North 508 585 36,000  Level Aus ATC (RADAR)
08:51AM -13.1373 145.1441 352° North 509 586 36,000 -60 Level Aus ATC (RADAR)
08:52AM -12.9969 145.1129 348° North 510 587 35,900 -60 Descending Aus ATC (RADAR)
08:53AM -12.8432 145.0906 352° North 509 586 35,900  Level Aus ATC (RADAR)
08:53AM -12.7847 145.0815 351° North 508 585 35,900  Level Aus ATC (RADAR)
08:59AM -12.0251 144.9645 355° North 36,000  Climbing Aus ATC (Calculated)
09:01AM -11.8156 144.8437 331° Northwest  Level FlightAware Approximate
09:02AM -11.9278 144.9084 151° Southeast  Level FlightAware Approximate
09:03AM -12.0401 144.9731 151° Southeast  Level FlightAware Approximate
09:04AM -11.9278 144.9084 331° Northwest  Level FlightAware Approximate
09:05AM -12.0401 144.9731 151° Southeast  Level FlightAware Approximate
09:06AM -11.9113 144.9363 351° North  Level FlightAware Approximate
09:07AM -11.7839 144.9165 351° North  Level FlightAware Approximate
09:08AM -11.6565 144.8968 351° North  Level FlightAware Approximate
09:09AM -11.5291 144.8771 351° North  Level FlightAware Approximate
09:09AM -10.4444 144.7160 356° North 36,000  Level Aus ATC (Calculated)
09:10AM -11.4017 144.8575 351° North  Level FlightAware Approximate
09:11AM -10.3043 144.6942 351° North  Level FlightAware Approximate
09:12AM -10.1769 144.6745 351° North  Level FlightAware Approximate
09:13AM -10.0495 144.6547 351° North  Level FlightAware Approximate
09:14AM -9.9221 144.6350 351° North  Level FlightAware Approximate
09:15AM -9.7947 144.6153 351° North  Level FlightAware Approximate
09:16AM -9.6673 144.5956 351° North  Level FlightAware Approximate
09:17AM -9.5399 144.5759 351° North  Level FlightAware Approximate
09:18AM -9.4125 144.5563 351° North  Level FlightAware Approximate
09:19AM -9.2852 144.5366 351° North  Level FlightAware Approximate
09:19AM -9.1238 144.5103 357° North 36,000  Level Aus ATC (Calculated)
09:20AM -9.1578 144.5170 351° North  Level FlightAware Approximate
09:21AM -8.8817 144.4733 351° North  Level FlightAware Approximate
09:22AM -8.7543 144.4538 351° North  Level FlightAware Approximate
09:23AM -8.6269 144.4343 351° North  Level FlightAware Approximate
09:24AM -8.4995 144.4148 351° North  Level FlightAware Approximate
09:25AM -8.3721 144.3954 351° North  Level FlightAware Approximate
09:26AM -8.2447 144.3760 351° North  Level FlightAware Approximate
09:27AM -8.1172 144.3566 351° North  Level FlightAware Approximate
09:28AM -7.9898 144.3371 351° North  Level FlightAware Approximate
09:29AM -7.8624 144.3177 351° North  Level FlightAware Approximate
09:30AM -7.7350 144.2984 351° North  Level FlightAware Approximate
09:31AM -7.6076 144.2790 351° North  Level FlightAware Approximate
09:32AM -7.4801 144.2596 351° North  Level FlightAware Approximate
09:33AM -7.3527 144.2403 351° North  Level FlightAware Approximate
09:34AM -7.4801 144.2596 171° South  Level FlightAware Approximate
09:35AM -7.3527 144.2403 351° North  Level FlightAware Approximate
09:36AM -7.4801 144.2596 171° South  Level FlightAware Approximate
09:37AM -7.3527 144.2403 351° North  Level FlightAware Approximate
09:38AM -7.4801 144.2596 171° South  Level FlightAware Approximate
09:38AM -6.4395 144.2148 358° North 38,000  Level Aus ATC (Calculated)
09:40AM -6.6863 144.2237 178° South  Level FlightAware Approximate
09:41AM -6.5647 144.1808 358° North  Level Estimated
09:42AM -6.4359 144.1773 358° North  Level FlightAware Approximate
09:43AM -6.3070 144.1737 358° North  Level FlightAware Approximate
09:44AM -6.1782 144.1701 358° North  Level FlightAware Approximate
09:45AM -6.0494 144.1665 358° North  Level FlightAware Approximate
09:46AM -5.9206 144.1630 358° North  Level FlightAware Approximate
09:47AM -5.7918 144.1594 358° North  Level FlightAware Approximate
09:48AM -5.6630 144.1558 358° North  Level FlightAware Approximate
09:49AM -5.5342 144.1523 358° North  Level FlightAware Approximate
09:50AM -5.4054 144.1487 358° North  Level FlightAware Approximate
09:51AM -5.2766 144.1451 358° North  Level FlightAware Approximate
09:52AM -5.1477 144.1416 358° North  Level FlightAware Approximate
09:53AM -5.0189 144.1380 358° North  Level FlightAware Approximate
09:54AM -4.8901 144.1344 358° North  Level FlightAware Approximate
09:55AM -4.7613 144.1309 358° North  Level FlightAware Approximate
09:56AM -4.6325 144.1273 358° North  Level FlightAware Approximate
09:57AM -4.5037 144.1238 358° North  Level FlightAware Approximate
09:58AM -4.3749 144.1202 358° North  Level FlightAware Approximate
09:59AM -4.2461 144.1167 358° North  Level FlightAware Approximate
10:00AM -4.1173 144.1131 358° North  Level FlightAware Approximate
10:01AM -3.9885 144.1096 358° North  Level FlightAware Approximate
10:02AM -3.8596 144.1060 358° North  Level FlightAware Approximate
10:03AM -3.7308 144.1025 358° North  Level FlightAware Approximate
10:04AM -3.6020 144.0989 358° North  Level FlightAware Approximate
10:05AM -3.4732 144.0954 358° North  Level FlightAware Approximate
10:06AM -3.3444 144.0918 358° North  Level FlightAware Approximate
10:07AM -3.2156 144.0883 358° North  Level FlightAware Approximate
10:08AM -3.0868 144.0847 358° North  Level FlightAware Approximate
10:09AM -2.9580 144.0812 358° North  Level FlightAware Approximate
10:10AM -2.8292 144.0777 358° North  Level FlightAware Approximate
10:11AM -2.7004 144.0741 358° North  Level FlightAware Approximate
10:12AM -2.5715 144.0706 358° North  Level FlightAware Approximate
10:13AM -2.4427 144.0670 358° North  Level FlightAware Approximate
10:14AM -2.3139 144.0635 358° North  Level FlightAware Approximate
10:15AM -2.1851 144.0600 358° North  Level FlightAware Approximate
10:16AM -2.0563 144.0564 358° North  Level FlightAware Approximate
10:17AM -1.9275 144.0529 358° North  Level FlightAware Approximate
10:18AM -1.7987 144.0493 358° North  Level FlightAware Approximate
10:19AM -1.6699 144.0458 358° North  Level FlightAware Approximate
10:20AM -1.5411 144.0423 358° North  Level FlightAware Approximate
10:21AM -1.4123 144.0387 358° North  Level FlightAware Approximate
10:22AM -1.2835 144.0352 358° North  Level FlightAware Approximate
10:23AM -1.1546 144.0317 358° North  Level FlightAware Approximate
10:24AM -1.0258 144.0282 358° North  Level FlightAware Approximate
10:24AM 0.1667 143.9833 356° North 488 562 36,000  Level Oakland Oceanic (ODAPS)
10:29AM 0.7167 143.9500 356° North 488 562 36,000  Level Oakland Oceanic (ODAPS)
10:42AM 2.6833 143.8000 355° North 485 558 36,000  Level Oakland Oceanic (ODAPS)
10:56AM 4.6167 143.6500 355° North 484 557 36,000  Level Oakland Oceanic (ODAPS)
10:59AM 5.0000 143.6167 351° North 477 549 36,000  Level Oakland Oceanic (ODAPS)
11:10AM 6.5333 143.3667 351° North 473 544 36,000  Level Oakland Oceanic (ODAPS)
11:24AM 8.4500 143.0667 351° North 479 551 36,000  Level Oakland Oceanic (ODAPS)
11:35AM 9.9833 142.8333 356° North 500 575 36,000  Level Guam Center
11:36AM 10.0148 142.8251 356° North 479 551 36,000  Level FlightAware Transoceanic
11:36AM 10.1167 142.8167 353° North 490 564 36,000  Level Guam Center
11:37AM 10.1463 142.8168 356° North 479 551 36,000  Level FlightAware Transoceanic
11:37AM 10.2500 142.8000 353° North 490 564 36,000  Level Guam Center
11:38AM 10.2778 142.8085 356° North 479 551 36,000  Level FlightAware Transoceanic
11:38AM 10.4000 142.7833 354° North 490 564 36,000  Level Guam Center
11:39AM 10.4093 142.8002 356° North 479 551 36,000  Level FlightAware Transoceanic
11:39AM 10.5333 142.7667 353° North 490 564 36,000  Level Guam Center
11:40AM 10.5407 142.7919 356° North 479 551 36,000  Level FlightAware Transoceanic
11:40AM 10.6667 142.7500 353° North 490 564 36,000  Level Guam Center
11:41AM 10.8000 142.7333 353° North 490 564 36,000  Level Guam Center
11:42AM 10.9333 142.7000 346° North 490 564 36,000  Level Guam Center
11:43AM 11.0667 142.6833 353° North 490 564 36,000  Level Guam Center
11:44AM 11.2167 142.6667 354° North 490 564 36,000  Level Guam Center
11:45AM 11.3500 142.6500 353° North 500 575 36,000  Level Guam Center
11:46AM 11.4833 142.6333 353° North 490 564 36,000  Level Guam Center
11:47AM 11.6167 142.6167 353° North 480 552 36,000  Level Guam Center
11:48AM 11.7500 142.6000 353° North 490 564 36,000  Level Guam Center
11:49AM 11.8667 142.5833 352° North 490 564 36,000  Level Guam Center
11:50AM 12.0333 142.5667 354° North 500 575 36,000  Level Guam Center
11:51AM 12.1667 142.5333 346° North 500 575 36,000  Level Guam Center
11:52AM 12.3000 142.5167 353° North 490 564 36,000  Level Guam Center
11:53AM 12.4333 142.5000 353° North 490 564 36,000  Level Guam Center
11:54AM 12.5833 142.4833 354° North 500 575 36,000  Level Guam Center
11:55AM 12.7167 142.4667 353° North 500 575 36,000  Level Guam Center
11:56AM 12.8500 142.4500 353° North 500 575 36,000  Level Guam Center
11:57AM 13.0000 142.4333 354° North 500 575 36,000  Level Guam Center
11:58AM 13.1333 142.4167 353° North 500 575 36,000  Level Guam Center
11:59AM 13.2667 142.4000 353° North 500 575 36,000  Level Guam Center
12:00PM 13.4000 142.3833 353° North 500 575 36,000  Level Guam Center
12:01PM 13.5500 142.3500 348° North 490 564 36,000  Level Guam Center
12:02PM 13.6833 142.3333 353° North 490 564 36,000  Level Guam Center
12:03PM 13.8167 142.3167 353° North 490 564 36,000  Level Guam Center
12:04PM 13.9500 142.3000 353° North 490 564 36,000  Level Guam Center
12:05PM 14.0833 142.2833 353° North 480 552 36,000  Level Guam Center
12:06PM 14.2167 142.2667 353° North 480 552 36,000  Level Guam Center
12:07PM 14.3500 142.2500 353° North 490 564 36,000  Level Guam Center
12:08PM 14.4833 142.2333 353° North 490 564 36,000  Level Guam Center
12:09PM 14.6167 142.2167 353° North 490 564 36,000  Level Guam Center
12:10PM 14.7667 142.2000 354° North 500 575 36,000  Level Guam Center
12:11PM 14.9000 142.1667 346° North 490 564 36,000  Level Guam Center
12:12PM 15.0333 142.1500 353° North 500 575 36,000  Level Guam Center
12:13PM 15.1667 142.1333 353° North 500 575 36,000  Level Guam Center
12:14PM 15.3167 142.1167 354° North 500 575 36,000  Level Guam Center
12:15PM 15.4500 142.1000 353° North 500 575 36,000  Level Guam Center
12:16PM 15.5833 142.0833 353° North 500 575 36,000  Level Guam Center
12:23PM 16.5833 141.9500 319° Northwest 458 527 36,000  Level Oakland Oceanic (ODAPS)
12:28PM 16.8167 141.7333 319° Northwest 458 527 36,000  Level Oakland Oceanic (ODAPS)
12:36PM 17.9167 140.7333 319° Northwest 453 521 36,000  Level Oakland Oceanic (ODAPS)
12:50PM 19.3000 139.4500 318° Northwest 453 521 36,000  Level Oakland Oceanic (ODAPS)
01:04PM 20.6500 138.1667 317° Northwest 436 502 36,000  Level Oakland Oceanic (ODAPS)
01:05PM 20.7177 138.0914 318° Northwest 453 521 36,000  Level FlightAware Transoceanic
01:06PM 20.8119 137.9999 318° Northwest 453 521 36,000  Level FlightAware Transoceanic
01:07PM 20.9060 137.9084 318° Northwest 453 521 36,000  Level FlightAware Transoceanic
01:08PM 21.0000 137.8167 330° Northwest 453 521 36,000  Level FlightAware Transoceanic
01:09PM 21.1052 137.7529 330° Northwest 453 521 36,000  Level FlightAware Transoceanic
01:10PM 21.2104 137.6890 330° Northwest 436 502 36,000  Level FlightAware Transoceanic
01:11PM 21.3155 137.6250 330° Northwest 436 502 36,000  Level FlightAware Transoceanic
01:12PM 21.4207 137.5609 330° Northwest 436 502 36,000  Level FlightAware Transoceanic
01:13PM 21.5258 137.4967 330° Northwest 436 502 36,000  Level FlightAware Transoceanic
01:14PM 21.6309 137.4324 330° Northwest 436 502 36,000  Level FlightAware Transoceanic
01:15PM 21.7359 137.3681 330° Northwest 436 502 36,000  Level FlightAware Transoceanic
01:16PM 21.8409 137.3036 330° Northwest 436 502 36,000  Level FlightAware Transoceanic
01:17PM 21.9459 137.2391 330° Northwest 436 502 36,000  Level FlightAware Transoceanic
01:18PM 22.0509 137.1744 330° Northwest 436 502 36,000  Level FlightAware Transoceanic
01:19PM 22.1559 137.1097 330° Northwest 436 502 36,000  Level FlightAware Transoceanic
01:20PM 22.2608 137.0448 330° Northwest 436 502 36,000  Level FlightAware Transoceanic
01:21PM 22.3657 136.9799 330° Northwest 436 502 36,000  Level FlightAware Transoceanic
01:22PM 22.4706 136.9149 330° Northwest 436 502 36,000  Level FlightAware Transoceanic
01:23PM 22.5755 136.8497 330° Northwest 436 502 36,000  Level FlightAware Transoceanic
01:24PM 22.6803 136.7845 330° Northwest 436 502 36,000  Level FlightAware Transoceanic
01:25PM 22.7851 136.7192 330° Northwest 436 502 36,000  Level FlightAware Transoceanic
01:26PM 22.8899 136.6537 330° Northwest 436 502 36,000  Level FlightAware Transoceanic
01:27PM 22.9946 136.5882 330° Northwest 436 502 36,000  Level FlightAware Transoceanic
01:28PM 23.0993 136.5226 330° Northwest 436 502 36,000  Level FlightAware Transoceanic
01:29PM 23.2040 136.4568 330° Northwest 436 502 36,000  Level FlightAware Transoceanic
01:30PM 23.3087 136.3910 330° Northwest 436 502 36,000  Level FlightAware Transoceanic
01:31PM 23.4133 136.3250 330° Northwest 436 502 36,000  Level FlightAware Transoceanic
01:32PM 23.5179 136.2590 330° Northwest 436 502 36,000  Level FlightAware Transoceanic
01:33PM 23.6225 136.1928 330° Northwest 436 502 36,000  Level FlightAware Transoceanic
01:34PM 23.7271 136.1266 330° Northwest 436 502 36,000  Level FlightAware Transoceanic
01:35PM 23.8316 136.0602 330° Northwest 436 502 36,000  Level FlightAware Transoceanic
01:36PM 23.9361 135.9937 330° Northwest 436 502 36,000  Level FlightAware Transoceanic
01:37PM 24.0406 135.9272 330° Northwest 436 502 36,000  Level FlightAware Transoceanic
01:38PM 24.1450 135.8605 330° Northwest 436 502 36,000  Level FlightAware Transoceanic
01:39PM 24.2494 135.7937 330° Northwest 436 502 36,000  Level FlightAware Transoceanic
01:40PM 24.3538 135.7268 330° Northwest 436 502 36,000  Level FlightAware Transoceanic
01:41PM 24.4581 135.6597 330° Northwest 436 502 36,000  Level FlightAware Transoceanic
01:42PM 24.5625 135.5926 330° Northwest 436 502 36,000  Level FlightAware Transoceanic
01:43PM 24.6667 135.5254 330° Northwest 436 502 36,000  Level FlightAware Transoceanic
01:44PM 24.7710 135.4580 330° Northwest 436 502 36,000  Level FlightAware Transoceanic
01:45PM 24.8752 135.3905 330° Northwest 436 502 36,000  Level FlightAware Transoceanic
01:46PM 24.9795 135.3230 330° Northwest 436 502 36,000  Level FlightAware Transoceanic
01:47PM 25.0836 135.2553 329° Northwest 436 502 36,000  Level FlightAware Transoceanic
01:48PM 25.1878 135.1875 329° Northwest 436 502 36,000  Level FlightAware Transoceanic
01:49PM 25.2919 135.1195 329° Northwest 436 502 36,000  Level FlightAware Transoceanic
01:50PM 25.3960 135.0515 329° Northwest 436 502 36,000  Level FlightAware Transoceanic
01:51PM 25.5056 134.9784 329° Northwest  Level FlightAware Approximate
01:52PM 25.6153 134.9051 329° Northwest  Level FlightAware Approximate
01:53PM 25.7250 134.8317 329° Northwest  Level FlightAware Approximate
01:54PM 25.8345 134.7582 329° Northwest  Level FlightAware Approximate
01:55PM 25.9441 134.6845 329° Northwest  Level FlightAware Approximate
01:56PM 26.0536 134.6107 329° Northwest  Level FlightAware Approximate
01:57PM 26.1631 134.5368 329° Northwest  Level FlightAware Approximate
01:58PM 26.2725 134.4627 329° Northwest  Level FlightAware Approximate
01:59PM 26.3819 134.3885 329° Northwest  Level FlightAware Approximate
02:00PM 26.4913 134.3141 329° Northwest  Level FlightAware Approximate
02:01PM 26.6006 134.2396 329° Northwest  Level FlightAware Approximate
02:02PM 26.7099 134.1650 329° Northwest  Level FlightAware Approximate
02:03PM 26.8192 134.0902 329° Northwest  Level FlightAware Approximate
02:04PM 26.9284 134.0152 329° Northwest  Level FlightAware Approximate
02:05PM 27.0376 133.9402 329° Northwest  Level FlightAware Approximate
02:06PM 27.1467 133.8649 328° Northwest  Level FlightAware Approximate
02:07PM 27.2558 133.7896 328° Northwest  Level FlightAware Approximate
02:08PM 27.3648 133.7141 328° Northwest  Level FlightAware Approximate
02:09PM 27.4738 133.6384 328° Northwest  Level FlightAware Approximate
02:10PM 27.5828 133.5626 328° Northwest  Level FlightAware Approximate
02:11PM 27.6917 133.4866 328° Northwest  Level FlightAware Approximate
02:12PM 27.8006 133.4105 328° Northwest  Level FlightAware Approximate
02:13PM 27.9095 133.3342 328° Northwest  Level FlightAware Approximate
02:14PM 28.0183 133.2578 328° Northwest  Level FlightAware Approximate
02:15PM 28.1270 133.1812 328° Northwest  Level FlightAware Approximate
02:16PM 28.2358 133.1045 328° Northwest  Level FlightAware Approximate
02:17PM 28.3444 133.0276 328° Northwest  Level FlightAware Approximate
02:18PM 28.4531 132.9505 328° Northwest  Level FlightAware Approximate
02:19PM 28.4591 132.9462 328° Northwest  Level FlightAware Approximate
02:20PM 28.5677 132.8689 328° Northwest  Level FlightAware Approximate
02:21PM 28.6762 132.7915 328° Northwest  Level FlightAware Approximate
02:22PM 28.7847 132.7139 328° Northwest  Level FlightAware Approximate
02:23PM 28.8931 132.6361 328° Northwest  Level FlightAware Approximate
02:24PM 29.0015 132.5582 328° Northwest  Level FlightAware Approximate
02:25PM 29.1098 132.4801 328° Northwest  Level FlightAware Approximate
02:26PM 29.2181 132.4019 328° Northwest  Level FlightAware Approximate
02:27PM 29.3263 132.3235 328° Northwest  Level FlightAware Approximate
02:28PM 29.4345 132.2449 328° Northwest  Level FlightAware Approximate
02:29PM 29.5427 132.1662 328° Northwest  Level FlightAware Approximate
02:30PM 29.6508 132.0872 328° Northwest  Level FlightAware Approximate
02:31PM 29.7589 132.0082 328° Northwest  Level FlightAware Approximate
02:32PM 29.8669 131.9290 328° Northwest  Level FlightAware Approximate
02:33PM 29.9749 131.8496 328° Northwest  Level FlightAware Approximate
02:34PM 30.0828 131.7700 327° Northwest  Level FlightAware Approximate
02:35PM 30.1907 131.6902 327° Northwest  Level FlightAware Approximate
02:36PM 30.2985 131.6104 327° Northwest  Level FlightAware Approximate
02:37PM 30.4064 131.5304 327° Northwest  Level FlightAware Approximate
02:38PM 30.5142 131.4503 327° Northwest  Level FlightAware Approximate
02:39PM 30.6219 131.3699 327° Northwest  Level FlightAware Approximate
02:40PM 30.7296 131.2894 327° Northwest  Level FlightAware Approximate
02:41PM 30.8373 131.2087 327° Northwest  Level FlightAware Approximate
02:42PM 30.9449 131.1278 327° Northwest  Level FlightAware Approximate
02:43PM 31.0524 131.0468 327° Northwest  Level FlightAware Approximate
02:44PM 31.1599 130.9655 327° Northwest  Level FlightAware Approximate
02:45PM 31.2673 130.8841 327° Northwest  Level FlightAware Approximate
02:46PM 31.3747 130.8025 327° Northwest  Level FlightAware Approximate
02:47PM 31.4821 130.7207 327° Northwest  Level FlightAware Approximate
02:48PM 31.5894 130.6387 327° Northwest  Level FlightAware Approximate
02:49PM 31.6975 130.5583 333° Northwest  Level FlightAware Approximate
02:50PM 31.8119 130.4907 333° Northwest  Level FlightAware Approximate
02:51PM 31.9263 130.4229 333° Northwest  Level FlightAware Approximate
02:52PM 32.0406 130.3549 333° Northwest  Level FlightAware Approximate
02:53PM 32.1549 130.2868 333° Northwest  Level FlightAware Approximate
02:54PM 32.2692 130.2185 333° Northwest  Level FlightAware Approximate
02:55PM 32.3834 130.1500 333° Northwest  Level FlightAware Approximate
02:56PM 32.4976 130.0816 333° Northwest  Level FlightAware Approximate
02:57PM 32.6120 130.0134 333° Northwest  Level FlightAware Approximate
02:58PM 32.7264 129.9450 333° Northwest  Level FlightAware Approximate
02:59PM 32.8407 129.8764 333° Northwest  Level FlightAware Approximate
03:00PM 32.9550 129.8076 333° Northwest  Level FlightAware Approximate
03:01PM 33.0693 129.7387 333° Northwest  Level FlightAware Approximate
03:02PM 33.1834 129.6694 333° Northwest  Level FlightAware Approximate
03:03PM 33.2973 129.5995 333° Northwest  Level FlightAware Approximate
03:04PM 33.4112 129.5294 333° Northwest  Level FlightAware Approximate
03:05PM 33.5251 129.4592 333° Northwest  Level FlightAware Approximate
03:06PM 33.6389 129.3888 333° Northwest  Level FlightAware Approximate
03:07PM 33.7526 129.3182 333° Northwest  Level FlightAware Approximate
03:08PM 33.8664 129.2474 333° Northwest  Level FlightAware Approximate
03:09PM 33.9801 129.1764 333° Northwest  Level FlightAware Approximate
03:10PM 34.0937 129.1052 333° Northwest  Level FlightAware Approximate
03:11PM 34.2073 129.0338 333° Northwest  Level FlightAware Approximate
03:12PM 34.3209 128.9623 333° Northwest  Level FlightAware Approximate
03:13PM 34.4344 128.8906 333° Northwest  Level FlightAware Approximate
03:14PM 34.5479 128.8188 332° Northwest  Level FlightAware Approximate
03:15PM 34.6614 128.7467 332° Northwest  Level FlightAware Approximate
03:16PM 34.7749 128.6745 332° Northwest  Level FlightAware Approximate
03:17PM 34.8883 128.6021 332° Northwest  Level FlightAware Approximate
03:18PM 35.0017 128.5295 332° Northwest  Level FlightAware Approximate
03:19PM 35.1150 128.4566 332° Northwest  Level FlightAware Approximate
03:20PM 35.2282 128.3836 332° Northwest  Level FlightAware Approximate
03:21PM 35.3415 128.3104 332° Northwest  Level FlightAware Approximate
03:22PM 35.4547 128.2370 332° Northwest  Level FlightAware Approximate
03:23PM 35.5678 128.1633 332° Northwest  Level FlightAware Approximate
03:24PM 35.6809 128.0895 332° Northwest  Level FlightAware Approximate
03:25PM 35.7926 128.0126 327° Northwest  Level FlightAware Approximate
03:26PM 35.9028 127.9326 332° Northwest  Level FlightAware Approximate
03:27PM 36.0163 127.8593 332° Northwest  Level FlightAware Approximate
03:28PM 36.1297 127.7857 332° Northwest  Level FlightAware Approximate
03:29PM 36.2403 127.7065 332° Northwest  Level FlightAware Approximate
03:30PM 36.3531 127.6313 332° Northwest  Level FlightAware Approximate
03:31PM 36.4659 127.5561 332° Northwest  Level FlightAware Approximate
03:32PM 36.5788 127.4809 332° Northwest  Level FlightAware Approximate
03:33PM 36.6918 127.4058 332° Northwest  Level FlightAware Approximate
03:34PM 36.8047 127.3307 332° Northwest  Level FlightAware Approximate
03:35PM 36.9177 127.2553 332° Northwest  Level FlightAware Approximate
03:36PM 37.0306 127.1797 332° Northwest  Level FlightAware Approximate
03:37PM 37.1410 127.0984 329° Northwest  Level FlightAware Approximate
03:38PM 37.2529 127.0204 332° Northwest  Level FlightAware Approximate
03:39PM 37.3660 126.9449 332° Northwest  Level FlightAware Approximate
03:40PM 37.4213 126.8103 284° West  Level FlightAware Approximate
03:41PM 37.4500 126.6570 270° West  Level FlightAware Approximate
03:42PM 37.4740 126.4987 280° West  Level FlightAware Approximate
03:43PM 37.4691 126.4505 280° West  Level Estimated
03:44PM 37.4691 126.4505 280° West  Level Estimated
03:45PM 37.4691 126.4505 280° West  Level Estimated
03:46PM 37.4691 126.4505 280° West  Level Estimated
03:47PM 37.4691 126.4505 280° West  Level Estimated
03:48PM 37.4691 126.4505 280° West  Level Estimated
03:49PM 37.4691 126.4505 280° West  Level Estimated
03:50PM 37.4691 126.4505 280° West  Level Estimated
03:51PM 37.4691 126.4505 280° West  Level Estimated
03:52PM 37.4691 126.4505 280° West  Level Estimated
03:53PM 37.4691 126.4505 280° West  Level Estimated
03:54PM 37.4691 126.4505 280° West  Level Estimated
03:55PM 37.4691 126.4505 280° West  Level Estimated
03:56PM 37.4691 126.4505 280° West  Level Estimated
03:57PM 37.4691 126.4505 280° West  Level Estimated
03:58PM 37.4691 126.4505 280° West  Level Estimated
03:59PM 37.4691 126.4505 280° West  Level Estimated
04:00PM 37.4691 126.4505 280° West  Level Estimated
04:01PM 37.4691 126.4505 280° West  Level Estimated
04:02PM 37.4691 126.4505 280° West  Level Estimated
04:03PM 37.4691 126.4505 280° West  Level Estimated
04:04PM 37.4691 126.4505 280° West  Level Estimated
04:05PM 37.4691 126.4505 280° West  Level Estimated
04:06PM 37.4691 126.4505 280° West  Level Estimated
04:07PM 37.4691 126.4505 280° West  Level Estimated
04:08PM 37.4691 126.4505 280° West  Level Estimated
04:09PM 37.4691 126.4505 280° West  Level Estimated
04:10PM 37.4691 126.4505 280° West  Level Estimated
04:11PM 37.4691 126.4505 280° West  Level Estimated
04:12PM 37.4691 126.4505 280° West  Level Estimated
04:13PM 37.4691 126.4505 280° West  Level Estimated